Time,TemperatureF,DewpointF,PressureIn,WindDirection,WindDirectionDegrees,WindSpeedMPH,WindSpeedGustMPH,Humidity,HourlyPrecipIn,Conditions,Clouds,dailyrainin,SoftwareType,DateUTC
2013-11-21 00:12:00,37.0,-99.9,-100.00,SSE,163,4.0,9.0,-999,-99.99,,,-99.99,,2013-11-21 05:12:00,
2013-11-21 00:23:00,37.0,-99.9,-100.00,SSE,163,4.0,9.0,-999,-99.99,,,-99.99,,2013-11-21 05:23:00,
2013-11-21 00:33:00,37.0,-99.9,-100.00,SSE,163,4.0,9.0,-999,-99.99,,,-99.99,,2013-11-21 05:33:00,
2013-11-21 00:40:00,37.0,-99.9,-100.00,SSE,164,4.0,8.0,-999,-99.99,,,-99.99,,2013-11-21 05:40:00,
2013-11-21 01:12:00,37.0,-99.9,-100.00,SSE,164,4.0,8.0,-999,-99.99,,,-99.99,,2013-11-21 06:12:00,
2013-11-21 01:22:00,37.0,-99.9,-100.00,SSE,164,4.0,8.0,-999,-99.99,,,-99.99,,2013-11-21 06:22:00,
2013-11-21 01:33:00,37.0,-99.9,-100.00,SSE,164,4.0,8.0,-999,-99.99,,,-99.99,,2013-11-21 06:33:00,
2013-11-21 01:40:00,36.0,-99.9,-100.00,SE,145,5.0,9.0,-999,-99.99,,,-99.99,,2013-11-21 06:40:00,
2013-11-21 02:12:00,36.0,-99.9,-100.00,SE,145,5.0,9.0,-999,-99.99,,,-99.99,,2013-11-21 07:12:00,
2013-11-21 02:22:00,36.0,-99.9,-100.00,SE,145,5.0,9.0,-999,-99.99,,,-99.99,,2013-11-21 07:22:00,
2013-11-21 02:33:00,36.0,-99.9,-100.00,SE,145,5.0,9.0,-999,-99.99,,,-99.99,,2013-11-21 07:33:00,
2013-11-21 02:40:00,36.0,-99.9,-100.00,SSE,151,3.0,6.0,-999,-99.99,,,-99.99,,2013-11-21 07:40:00,
2013-11-21 03:12:00,36.0,-99.9,-100.00,SSE,151,3.0,6.0,-999,-99.99,,,-99.99,,2013-11-21 08:12:00,
2013-11-21 03:22:00,36.0,-99.9,-100.00,SSE,151,3.0,6.0,-999,-99.99,,,-99.99,,2013-11-21 08:22:00,
2013-11-21 03:32:00,36.0,-99.9,-100.00,SSE,151,3.0,6.0,-999,-99.99,,,-99.99,,2013-11-21 08:32:00,
2013-11-21 03:40:00,36.0,-99.9,-100.00,SE,133,2.0,4.0,-999,-99.99,,,-99.99,,2013-11-21 08:40:00,
2013-11-21 04:22:00,36.0,-99.9,-100.00,SE,133,2.0,4.0,-999,-99.99,,,-99.99,,2013-11-21 09:22:00,
2013-11-21 04:33:00,36.0,-99.9,-100.00,SE,133,2.0,4.0,-999,-99.99,,,-99.99,,2013-11-21 09:33:00,
2013-11-21 04:40:00,35.0,-99.9,-100.00,SSE,158,2.0,5.0,-999,-99.99,,,-99.99,,2013-11-21 09:40:00,
2013-11-21 05:13:00,35.0,-99.9,-100.00,SSE,158,2.0,5.0,-999,-99.99,,,-99.99,,2013-11-21 10:13:00,
2013-11-21 05:23:00,35.0,-99.9,-100.00,SSE,158,2.0,5.0,-999,-99.99,,,-99.99,,2013-11-21 10:23:00,
2013-11-21 05:33:00,35.0,-99.9,-100.00,SSE,158,2.0,5.0,-999,-99.99,,,-99.99,,2013-11-21 10:33:00,
2013-11-21 05:40:00,35.0,-99.9,-100.00,North,-999,0.0,1.0,-999,-99.99,,,-99.99,,2013-11-21 10:40:00,
2013-11-21 06:12:00,35.0,-99.9,-100.00,North,-999,0.0,1.0,-999,-99.99,,,-99.99,,2013-11-21 11:12:00,
2013-11-21 06:22:00,35.0,-99.9,-100.00,North,-999,0.0,1.0,-999,-99.99,,,-99.99,,2013-11-21 11:22:00,
2013-11-21 06:33:00,35.0,-99.9,-100.00,North,-999,0.0,1.0,-999,-99.99,,,-99.99,,2013-11-21 11:33:00,
2013-11-21 06:40:00,34.0,-99.9,-100.00,North,-999,0.0,0.0,-999,-99.99,,,-99.99,,2013-11-21 11:40:00,
2013-11-21 07:12:00,34.0,-99.9,-100.00,North,-999,0.0,0.0,-999,-99.99,,,-99.99,,2013-11-21 12:12:00,
2013-11-21 07:22:00,34.0,-99.9,-100.00,North,-999,0.0,0.0,-999,-99.99,,,-99.99,,2013-11-21 12:22:00,
2013-11-21 07:32:00,34.0,-99.9,-100.00,North,-999,0.0,0.0,-999,-99.99,,,-99.99,,2013-11-21 12:32:00,
2013-11-21 07:40:00,35.0,-99.9,-100.00,North,-999,0.0,1.0,-999,-99.99,,,-99.99,,2013-11-21 12:40:00,
2013-11-21 08:12:00,35.0,-99.9,-100.00,North,-999,0.0,1.0,-999,-99.99,,,-99.99,,2013-11-21 13:12:00,
2013-11-21 08:22:00,35.0,-99.9,-100.00,North,-999,0.0,1.0,-999,-99.99,,,-99.99,,2013-11-21 13:22:00,
2013-11-21 08:32:00,35.0,-99.9,-100.00,North,-999,0.0,1.0,-999,-99.99,,,-99.99,,2013-11-21 13:32:00,
2013-11-21 08:40:00,35.0,-99.9,-100.00,North,-999,0.0,0.0,-999,-99.99,,,-99.99,,2013-11-21 13:40:00,
2013-11-21 09:12:00,35.0,-99.9,-100.00,North,-999,0.0,0.0,-999,-99.99,,,-99.99,,2013-11-21 14:12:00,
2013-11-21 09:22:00,35.0,-99.9,-100.00,North,-999,0.0,0.0,-999,-99.99,,,-99.99,,2013-11-21 14:22:00,
2013-11-21 09:32:00,35.0,-99.9,-100.00,North,-999,0.0,0.0,-999,-99.99,,,-99.99,,2013-11-21 14:32:00,
2013-11-21 09:40:00,37.0,-99.9,-100.00,SSW,203,1.0,4.0,-999,-99.99,,,-99.99,,2013-11-21 14:40:00,
2013-11-21 10:22:00,37.0,-99.9,-100.00,SSW,203,1.0,4.0,-999,-99.99,,,-99.99,,2013-11-21 15:22:00,
2013-11-21 10:34:00,37.0,-99.9,-100.00,SSW,203,1.0,4.0,-999,-99.99,,,-99.99,,2013-11-21 15:34:00,
2013-11-21 10:40:00,38.0,-99.9,-100.00,WSW,244,2.0,5.0,-999,-99.99,,,-99.99,,2013-11-21 15:40:00,
2013-11-21 11:24:00,38.0,-99.9,-100.00,WSW,244,2.0,5.0,-999,-99.99,,,-99.99,,2013-11-21 16:24:00,
2013-11-21 11:33:00,38.0,-99.9,-100.00,WSW,244,2.0,5.0,-999,-99.99,,,-99.99,,2013-11-21 16:33:00,
2013-11-21 11:40:00,38.0,-99.9,-100.00,SW,235,2.0,6.0,-999,-99.99,,,-99.99,,2013-11-21 16:40:00,
2013-11-21 12:12:00,38.0,-99.9,-100.00,SW,235,2.0,6.0,-999,-99.99,,,-99.99,,2013-11-21 17:12:00,
2013-11-21 12:22:00,38.0,-99.9,-100.00,SW,235,2.0,6.0,-999,-99.99,,,-99.99,,2013-11-21 17:22:00,
2013-11-21 12:33:00,38.0,-99.9,-100.00,SW,235,2.0,6.0,-999,-99.99,,,-99.99,,2013-11-21 17:33:00,
2013-11-21 12:40:00,39.0,-99.9,-100.00,West,274,4.0,6.0,-999,-99.99,,,-99.99,,2013-11-21 17:40:00,
2013-11-21 13:12:00,39.0,-99.9,-100.00,West,274,4.0,6.0,-999,-99.99,,,-99.99,,2013-11-21 18:12:00,
2013-11-21 13:22:00,39.0,-99.9,-100.00,West,274,4.0,6.0,-999,-99.99,,,-99.99,,2013-11-21 18:22:00,
2013-11-21 13:33:00,39.0,-99.9,-100.00,West,274,4.0,6.0,-999,-99.99,,,-99.99,,2013-11-21 18:33:00,
2013-11-21 13:40:00,39.0,-99.9,-100.00,West,259,4.0,7.0,-999,-99.99,,,-99.99,,2013-11-21 18:40:00,
2013-11-21 14:12:00,39.0,-99.9,-100.00,West,259,4.0,7.0,-999,-99.99,,,-99.99,,2013-11-21 19:12:00,
2013-11-21 14:22:00,39.0,-99.9,-100.00,West,259,4.0,7.0,-999,-99.99,,,-99.99,,2013-11-21 19:22:00,
2013-11-21 14:33:00,39.0,-99.9,-100.00,West,259,4.0,7.0,-999,-99.99,,,-99.99,,2013-11-21 19:33:00,
2013-11-21 14:40:00,39.0,-99.9,-100.00,WSW,254,1.0,6.0,-999,-99.99,,,-99.99,,2013-11-21 19:40:00,
2013-11-21 15:12:00,39.0,-99.9,-100.00,WSW,254,1.0,6.0,-999,-99.99,,,-99.99,,2013-11-21 20:12:00,
2013-11-21 15:22:00,39.0,-99.9,-100.00,WSW,254,1.0,6.0,-999,-99.99,,,-99.99,,2013-11-21 20:22:00,
2013-11-21 15:32:00,39.0,-99.9,-100.00,WSW,254,1.0,6.0,-999,-99.99,,,-99.99,,2013-11-21 20:32:00,
2013-11-21 15:40:00,38.0,-99.9,-100.00,SW,226,3.0,7.0,-999,-99.99,,,-99.99,,2013-11-21 20:40:00,
2013-11-21 16:11:00,38.0,-99.9,-100.00,SW,226,3.0,7.0,-999,-99.99,,,-99.99,,2013-11-21 21:11:00,
2013-11-21 16:22:00,38.0,-99.9,-100.00,SW,226,3.0,7.0,-999,-99.99,,,-99.99,,2013-11-21 21:22:00,
2013-11-21 16:34:00,38.0,-99.9,-100.00,SW,226,3.0,7.0,-999,-99.99,,,-99.99,,2013-11-21 21:34:00,
2013-11-21 16:40:00,39.0,-99.9,-100.00,West,262,3.0,5.0,-999,-99.99,,,-99.99,,2013-11-21 21:40:00,
2013-11-21 17:13:00,39.0,-99.9,-100.00,West,262,3.0,5.0,-999,-99.99,,,-99.99,,2013-11-21 22:13:00,
2013-11-21 17:23:00,39.0,-99.9,-100.00,West,262,3.0,5.0,-999,-99.99,,,-99.99,,2013-11-21 22:23:00,
2013-11-21 17:33:00,39.0,-99.9,-100.00,West,262,3.0,5.0,-999,-99.99,,,-99.99,,2013-11-21 22:33:00,
2013-11-21 18:40:00,33.0,-99.9,-100.00,NNW,344,19.0,24.0,-999,-99.99,,,-99.99,,2013-11-21 23:40:00,
2013-11-21 18:43:00,36.0,-99.9,-100.00,NNW,347,18.0,26.0,-999,-99.99,,,-99.99,,2013-11-21 23:43:00,
2013-11-21 18:53:00,36.0,-99.9,-100.00,NNW,347,18.0,26.0,-999,-99.99,,,-99.99,,2013-11-21 23:53:00,
2013-11-21 19:11:00,33.0,-99.9,-100.00,NNW,344,19.0,24.0,-999,-99.99,,,-99.99,,2013-11-22 00:11:00,
2013-11-21 19:22:00,33.0,-99.9,-100.00,NNW,344,19.0,24.0,-999,-99.99,,,-99.99,,2013-11-22 00:22:00,
2013-11-21 19:32:00,33.0,-99.9,-100.00,NNW,344,19.0,24.0,-999,-99.99,,,-99.99,,2013-11-22 00:32:00,
2013-11-21 19:40:00,31.0,-99.9,-100.00,NNW,339,10.0,21.0,-999,-99.99,,,-99.99,,2013-11-22 00:40:00,
2013-11-21 20:22:00,31.0,-99.9,-100.00,NNW,339,10.0,21.0,-999,-99.99,,,-99.99,,2013-11-22 01:22:00,
2013-11-21 20:32:00,31.0,-99.9,-100.00,NNW,339,10.0,21.0,-999,-99.99,,,-99.99,,2013-11-22 01:32:00,
2013-11-21 20:52:00,31.0,-99.9,-100.00,NNW,339,10.0,28.0,-999,-99.99,,,-99.99,,2013-11-22 01:52:00,
2013-11-21 21:02:00,31.0,-99.9,-100.00,NNW,339,10.0,28.0,-999,-99.99,,,-99.99,,2013-11-22 02:02:00,
2013-11-21 21:22:00,30.0,-99.9,-100.00,NNW,343,12.0,23.0,-999,-99.99,,,-99.99,,2013-11-22 02:22:00,
2013-11-21 21:32:00,30.0,-99.9,-100.00,NNW,343,12.0,23.0,-999,-99.99,,,-99.99,,2013-11-22 02:32:00,
2013-11-21 21:53:00,30.0,-99.9,-100.00,NNW,347,13.0,25.0,-999,-99.99,,,-99.99,,2013-11-22 02:53:00,
2013-11-21 22:00:00,30.0,-99.9,-100.00,NNW,347,13.0,25.0,-999,-99.99,,,-99.99,,2013-11-22 03:00:00,
2013-11-21 22:12:00,30.0,-99.9,-100.00,North,350,14.0,18.0,-999,-99.99,,,-99.99,,2013-11-22 03:12:00,
2013-11-21 22:22:00,30.0,-99.9,-100.00,NNW,347,13.0,25.0,-999,-99.99,,,-99.99,,2013-11-22 03:22:00,
2013-11-21 22:34:00,30.0,-99.9,-100.00,NNW,347,13.0,25.0,-999,-99.99,,,-99.99,,2013-11-22 03:34:00,
2013-11-21 22:40:00,29.0,-99.9,-100.00,NNW,332,13.0,18.0,-999,-99.99,,,-99.99,,2013-11-22 03:40:00,
2013-11-21 22:43:00,30.0,-99.9,-100.00,NNW,347,13.0,25.0,-999,-99.99,,,-99.99,,2013-11-22 03:43:00,
2013-11-21 22:54:00,30.0,-99.9,-100.00,NNW,347,13.0,25.0,-999,-99.99,,,-99.99,,2013-11-22 03:54:00,
2013-11-21 23:23:00,29.0,-99.9,-100.00,NNW,332,13.0,18.0,-999,-99.99,,,-99.99,,2013-11-22 04:23:00,
2013-11-21 23:34:00,29.0,-99.9,-100.00,NNW,332,13.0,18.0,-999,-99.99,,,-99.99,,2013-11-22 04:34:00,
2013-11-21 23:40:00,29.0,-99.9,-100.00,NNW,336,13.0,21.0,-999,-99.99,,,-99.99,,2013-11-22 04:40:00,